Time,TemperatureF,DewpointF,PressureIn,WindDirection,WindDirectionDegrees,WindSpeedMPH,WindSpeedGustMPH,Humidity,HourlyPrecipIn,Conditions,Clouds,dailyrainin,SoftwareType,DateUTC
2013-03-21 00:00:00,57.2,53.0,29.95,West,274,0.0,0.0,86,0.00,,,0.00,Wunderground v.1.15,2013-03-21 07:00:00,
2013-03-21 00:05:00,57.2,53.0,29.95,West,274,0.0,0.0,86,0.00,,,0.00,Wunderground v.1.15,2013-03-21 07:05:00,
2013-03-21 00:20:00,57.1,53.0,29.94,West,274,0.0,0.0,86,0.00,,,0.00,Wunderground v.1.15,2013-03-21 07:20:00,
2013-03-21 00:25:00,57.0,52.9,29.94,West,274,0.0,0.0,86,0.00,,,0.00,Wunderground v.1.15,2013-03-21 07:25:00,
2013-03-21 00:30:00,56.9,52.8,29.94,West,274,0.0,0.0,86,0.00,,,0.00,Wunderground v.1.15,2013-03-21 07:30:00,
2013-03-21 00:35:00,56.8,52.7,29.94,West,274,0.0,0.0,86,0.00,,,0.00,Wunderground v.1.15,2013-03-21 07:35:00,
2013-03-21 00:40:00,56.7,52.6,29.94,West,274,0.0,0.0,86,0.00,,,0.00,Wunderground v.1.15,2013-03-21 07:40:00,
2013-03-21 00:45:00,56.7,52.6,29.94,West,274,0.0,0.0,86,0.00,,,0.00,Wunderground v.1.15,2013-03-21 07:45:00,
2013-03-21 00:50:00,56.6,52.5,29.94,West,274,0.0,0.0,86,0.00,,,0.00,Wunderground v.1.15,2013-03-21 07:50:00,
2013-03-21 01:00:00,56.6,52.5,29.94,West,274,0.0,0.0,86,0.00,,,0.00,Wunderground v.1.15,2013-03-21 08:00:00,
2013-03-21 01:05:00,56.6,52.5,29.94,West,274,0.0,0.0,86,0.00,,,0.00,Wunderground v.1.15,2013-03-21 08:05:00,
2013-03-21 01:10:00,56.6,52.5,29.93,West,274,0.0,0.0,86,0.00,,,0.00,Wunderground v.1.15,2013-03-21 08:10:00,
2013-03-21 01:16:00,56.6,52.5,29.93,West,274,0.0,3.0,86,0.00,,,0.00,Wunderground v.1.15,2013-03-21 08:16:00,
2013-03-21 01:25:00,56.7,52.9,29.93,East,80,0.0,1.0,87,0.00,,,0.00,Wunderground v.1.15,2013-03-21 08:25:00,
2013-03-21 01:30:00,56.7,52.9,29.93,East,80,0.0,0.0,87,0.00,,,0.00,Wunderground v.1.15,2013-03-21 08:30:00,
2013-03-21 01:35:00,56.7,52.9,29.93,East,80,0.0,2.0,87,0.00,,,0.00,Wunderground v.1.15,2013-03-21 08:35:00,
2013-03-21 01:45:00,56.8,53.0,29.93,East,81,0.0,0.0,87,0.00,,,0.00,Wunderground v.1.15,2013-03-21 08:45:00,
2013-03-21 01:50:00,56.7,53.2,29.93,East,81,0.0,0.0,88,0.00,,,0.00,Wunderground v.1.15,2013-03-21 08:50:00,
2013-03-21 01:55:00,56.7,53.2,29.93,East,80,0.0,0.0,88,0.00,,,0.00,Wunderground v.1.15,2013-03-21 08:55:00,
2013-03-21 02:00:00,56.6,53.1,29.93,East,81,0.0,0.0,88,0.00,,,0.00,Wunderground v.1.15,2013-03-21 09:00:00,
2013-03-21 02:10:00,56.5,53.0,29.93,East,81,0.0,0.0,88,0.00,,,0.00,Wunderground v.1.15,2013-03-21 09:10:00,
2013-03-21 02:20:00,56.3,52.8,29.93,East,81,0.0,0.0,88,0.00,,,0.00,Wunderground v.1.15,2013-03-21 09:20:00,
2013-03-21 02:25:00,56.2,52.7,29.92,East,81,0.0,0.0,88,0.00,,,0.00,Wunderground v.1.15,2013-03-21 09:25:00,
2013-03-21 02:30:00,56.2,52.7,29.92,East,81,0.0,0.0,88,0.00,,,0.00,Wunderground v.1.15,2013-03-21 09:30:00,
2013-03-21 02:40:00,56.2,52.7,29.93,East,81,0.0,0.0,88,0.00,,,0.00,Wunderground v.1.15,2013-03-21 09:40:00,
2013-03-21 02:45:00,56.0,52.5,29.93,East,81,0.0,0.0,88,0.00,,,0.00,Wunderground v.1.15,2013-03-21 09:45:00,
2013-03-21 02:50:00,55.9,52.4,29.92,East,81,0.0,0.0,88,0.00,,,0.00,Wunderground v.1.15,2013-03-21 09:50:00,
2013-03-21 02:55:00,55.9,52.4,29.92,East,81,0.0,0.0,88,0.00,,,0.00,Wunderground v.1.15,2013-03-21 09:55:00,
2013-03-21 03:00:00,55.9,52.4,29.92,East,81,0.0,0.0,88,0.00,,,0.00,Wunderground v.1.15,2013-03-21 10:00:00,
2013-03-21 03:05:00,55.9,52.4,29.92,East,81,0.0,0.0,88,0.00,,,0.00,Wunderground v.1.15,2013-03-21 10:05:00,
2013-03-21 03:10:00,55.7,52.2,29.92,East,80,0.0,0.0,88,0.00,,,0.00,Wunderground v.1.15,2013-03-21 10:10:00,
2013-03-21 03:15:00,55.7,52.5,29.91,East,80,0.0,0.0,89,0.00,,,0.00,Wunderground v.1.15,2013-03-21 10:15:00,
2013-03-21 03:25:00,55.6,52.4,29.91,East,80,0.0,0.0,89,0.00,,,0.00,Wunderground v.1.15,2013-03-21 10:25:00,
2013-03-21 03:35:00,55.5,52.3,29.91,East,80,0.0,0.0,89,0.00,,,0.00,Wunderground v.1.15,2013-03-21 10:35:00,
2013-03-21 03:40:00,55.6,52.4,29.91,East,80,0.0,0.0,89,0.00,,,0.00,Wunderground v.1.15,2013-03-21 10:40:00,
2013-03-21 03:45:00,55.5,52.3,29.90,East,80,0.0,0.0,89,0.00,,,0.00,Wunderground v.1.15,2013-03-21 10:45:00,
2013-03-21 03:50:00,55.4,52.2,29.91,East,80,0.0,0.0,89,0.00,,,0.00,Wunderground v.1.15,2013-03-21 10:50:00,
2013-03-21 03:55:00,55.2,52.0,29.90,East,80,0.0,0.0,89,0.00,,,0.00,Wunderground v.1.15,2013-03-21 10:55:00,
2013-03-21 04:00:00,54.9,51.4,29.90,East,80,0.0,0.0,88,0.00,,,0.00,Wunderground v.1.15,2013-03-21 11:00:00,
2013-03-21 04:05:00,54.8,51.6,29.89,East,80,0.0,0.0,89,0.00,,,0.00,Wunderground v.1.15,2013-03-21 11:05:00,
2013-03-21 04:10:00,54.6,51.4,29.89,East,81,0.0,0.0,89,0.00,,,0.00,Wunderground v.1.15,2013-03-21 11:10:00,
2013-03-21 04:15:00,54.6,51.4,29.89,East,81,0.0,0.0,89,0.00,,,0.00,Wunderground v.1.15,2013-03-21 11:15:00,
2013-03-21 04:20:00,54.6,51.4,29.89,East,81,0.0,0.0,89,0.00,,,0.00,Wunderground v.1.15,2013-03-21 11:20:00,
2013-03-21 04:25:00,54.5,51.3,29.89,East,81,0.0,0.0,89,0.00,,,0.00,Wunderground v.1.15,2013-03-21 11:25:00,
2013-03-21 04:30:00,54.3,51.1,29.89,East,81,0.0,0.0,89,0.00,,,0.00,Wunderground v.1.15,2013-03-21 11:30:00,
2013-03-21 04:40:00,54.0,50.8,29.89,East,81,0.0,0.0,89,0.00,,,0.00,Wunderground v.1.15,2013-03-21 11:40:00,
2013-03-21 04:50:00,53.9,50.7,29.89,East,81,0.0,0.0,89,0.00,,,0.00,Wunderground v.1.15,2013-03-21 11:50:00,
2013-03-21 04:55:00,53.9,50.7,29.89,East,81,0.0,0.0,89,0.00,,,0.00,Wunderground v.1.15,2013-03-21 11:55:00,
2013-03-21 05:00:00,53.8,50.6,29.89,East,81,0.0,0.0,89,0.00,,,0.00,Wunderground v.1.15,2013-03-21 12:00:00,
2013-03-21 05:05:00,53.8,50.6,29.89,East,81,0.0,0.0,89,0.00,,,0.00,Wunderground v.1.15,2013-03-21 12:05:00,
2013-03-21 05:10:00,53.7,50.5,29.88,East,81,0.0,0.0,89,0.00,,,0.00,Wunderground v.1.15,2013-03-21 12:10:00,
2013-03-21 05:20:00,53.8,50.6,29.88,East,81,0.0,0.0,89,0.00,,,0.00,Wunderground v.1.15,2013-03-21 12:20:00,
2013-03-21 05:25:00,53.8,50.6,29.88,East,81,0.0,0.0,89,0.00,,,0.00,Wunderground v.1.15,2013-03-21 12:25:00,
2013-03-21 05:35:00,53.7,50.5,29.88,East,81,0.0,0.0,89,0.00,,,0.00,Wunderground v.1.15,2013-03-21 12:35:00,
2013-03-21 05:40:00,53.6,50.4,29.88,East,81,0.0,0.0,89,0.00,,,0.00,Wunderground v.1.15,2013-03-21 12:40:00,
2013-03-21 05:45:00,53.7,50.8,29.88,East,81,0.0,0.0,90,0.00,,,0.00,Wunderground v.1.15,2013-03-21 12:45:00,
2013-03-21 05:50:00,53.7,50.5,29.88,East,81,0.0,0.0,89,0.00,,,0.00,Wunderground v.1.15,2013-03-21 12:50:00,
2013-03-21 05:55:00,53.7,50.5,29.88,East,81,0.0,0.0,89,0.00,,,0.00,Wunderground v.1.15,2013-03-21 12:55:00,
2013-03-21 06:00:00,53.6,50.4,29.89,East,81,0.0,0.0,89,0.00,,,0.00,Wunderground v.1.15,2013-03-21 13:00:00,
2013-03-21 06:10:00,53.3,50.1,29.88,East,81,0.0,0.0,89,0.00,,,0.00,Wunderground v.1.15,2013-03-21 13:10:00,
2013-03-21 06:20:00,53.3,50.1,29.89,East,81,0.0,0.0,89,0.00,,,0.00,Wunderground v.1.15,2013-03-21 13:20:00,
2013-03-21 06:25:00,53.3,50.1,29.89,East,81,0.0,0.0,89,0.00,,,0.00,Wunderground v.1.15,2013-03-21 13:25:00,
2013-03-21 06:35:00,53.3,50.1,29.89,East,81,0.0,0.0,89,0.00,,,0.00,Wunderground v.1.15,2013-03-21 13:35:00,
2013-03-21 06:40:00,53.2,50.0,29.89,East,81,0.0,0.0,89,0.00,,,0.00,Wunderground v.1.15,2013-03-21 13:40:00,
2013-03-21 06:45:00,53.1,49.9,29.89,East,81,0.0,0.0,89,0.00,,,0.00,Wunderground v.1.15,2013-03-21 13:45:00,
2013-03-21 06:50:00,53.0,49.8,29.89,East,81,0.0,0.0,89,0.00,,,0.00,Wunderground v.1.15,2013-03-21 13:50:00,
2013-03-21 06:55:00,52.8,49.6,29.89,East,81,0.0,0.0,89,0.00,,,0.00,Wunderground v.1.15,2013-03-21 13:55:00,
2013-03-21 07:00:00,52.6,49.4,29.89,East,81,0.0,0.0,89,0.00,,,0.00,Wunderground v.1.15,2013-03-21 14:00:00,
2013-03-21 07:05:00,52.4,49.3,29.89,East,81,0.0,0.0,89,0.00,,,0.00,Wunderground v.1.15,2013-03-21 14:05:00,
2013-03-21 07:20:00,52.4,49.6,29.89,East,81,0.0,0.0,90,0.00,,,0.00,Wunderground v.1.15,2013-03-21 14:20:00,
2013-03-21 07:25:00,52.4,49.6,29.89,East,81,0.0,0.0,90,0.00,,,0.00,Wunderground v.1.15,2013-03-21 14:25:00,
2013-03-21 07:35:00,52.6,49.8,29.89,East,81,0.0,0.0,90,0.00,,,0.00,Wunderground v.1.15,2013-03-21 14:35:00,
2013-03-21 07:45:00,52.8,49.9,29.90,East,81,0.0,0.0,90,0.00,,,0.00,Wunderground v.1.15,2013-03-21 14:45:00,
2013-03-21 07:50:00,53.0,50.1,29.90,East,81,0.0,0.0,90,0.00,,,0.00,Wunderground v.1.15,2013-03-21 14:50:00,
2013-03-21 07:55:00,53.2,50.3,29.90,East,81,0.0,0.0,90,0.00,,,0.00,Wunderground v.1.15,2013-03-21 14:55:00,
2013-03-21 08:00:00,53.5,50.6,29.90,East,81,0.0,1.0,90,0.00,,,0.00,Wunderground v.1.15,2013-03-21 15:00:00,
2013-03-21 08:05:00,54.1,51.2,29.90,East,81,0.0,1.0,90,0.00,,,0.00,Wunderground v.1.15,2013-03-21 15:05:00,
2013-03-21 08:10:00,54.6,51.7,29.90,East,81,1.0,1.0,90,0.00,,,0.00,Wunderground v.1.15,2013-03-21 15:10:00,
2013-03-21 08:20:00,55.5,52.6,29.90,ENE,75,1.0,4.0,90,0.00,,,0.00,Wunderground v.1.15,2013-03-21 15:20:00,
2013-03-21 08:25:00,56.2,53.0,29.90,ENE,76,2.0,4.0,89,0.00,,,0.00,Wunderground v.1.15,2013-03-21 15:25:00,
2013-03-21 08:30:00,56.8,53.6,29.90,East,80,1.0,2.0,89,0.00,,,0.00,Wunderground v.1.15,2013-03-21 15:30:00,
2013-03-21 08:35:00,57.2,54.0,29.90,East,92,1.0,4.0,89,0.00,,,0.00,Wunderground v.1.15,2013-03-21 15:35:00,
2013-03-21 08:45:00,57.8,54.3,29.90,ENE,78,2.0,3.0,88,0.00,,,0.00,Wunderground v.1.15,2013-03-21 15:45:00,
2013-03-21 08:55:00,58.3,54.4,29.90,ESE,109,2.0,3.0,87,0.00,,,0.00,Wunderground v.1.15,2013-03-21 15:55:00,
2013-03-21 09:55:00,61.2,55.7,29.91,South,186,3.0,3.0,82,0.00,,,0.00,Wunderground v.1.15,2013-03-21 16:55:00,
2013-03-21 10:00:00,61.4,55.9,29.91,SSE,157,2.0,2.0,82,0.00,,,0.00,Wunderground v.1.15,2013-03-21 17:00:00,
2013-03-21 10:06:00,61.7,56.1,29.92,South,180,2.0,2.0,82,0.00,,,0.00,Wunderground v.1.15,2013-03-21 17:06:00,
2013-03-21 10:10:00,62.2,56.3,29.92,South,182,2.0,4.0,81,0.00,,,0.00,Wunderground v.1.15,2013-03-21 17:10:00,
2013-03-21 10:15:00,62.7,56.4,29.91,SSE,154,2.0,5.0,80,0.00,,,0.00,Wunderground v.1.15,2013-03-21 17:15:00,
2013-03-21 10:20:00,63.1,56.5,29.91,South,169,2.0,2.0,79,0.00,,,0.00,Wunderground v.1.15,2013-03-21 17:20:00,
2013-03-21 10:25:00,63.3,56.0,29.91,South,177,2.0,2.0,77,0.00,,,0.00,Wunderground v.1.15,2013-03-21 17:25:00,
2013-03-21 10:35:00,63.1,55.8,29.91,SW,220,3.0,6.0,77,0.00,,,0.00,Wunderground v.1.15,2013-03-21 17:35:00,
2013-03-21 10:40:00,63.1,55.8,29.91,SSE,157,2.0,2.0,77,0.00,,,0.00,Wunderground v.1.15,2013-03-21 17:40:00,
2013-03-21 10:45:00,63.4,55.7,29.91,WSW,237,2.0,2.0,76,0.00,,,0.00,Wunderground v.1.15,2013-03-21 17:45:00,
2013-03-21 11:00:00,64.0,55.9,29.91,SSW,213,3.0,6.0,75,0.00,,,0.00,Wunderground v.1.15,2013-03-21 18:00:00,
2013-03-21 11:05:00,63.7,56.0,29.91,SSW,201,4.0,6.0,76,0.00,,,0.00,Wunderground v.1.15,2013-03-21 18:05:00,
2013-03-21 11:10:00,63.5,55.8,29.91,SW,232,4.0,4.0,76,0.00,,,0.00,Wunderground v.1.15,2013-03-21 18:10:00,
2013-03-21 11:15:00,63.3,55.6,29.91,SSW,200,4.0,5.0,76,0.00,,,0.00,Wunderground v.1.15,2013-03-21 18:15:00,
2013-03-21 11:20:00,63.5,55.8,29.91,SW,230,4.0,4.0,76,0.00,,,0.00,Wunderground v.1.15,2013-03-21 18:20:00,
2013-03-21 11:25:00,64.0,55.9,29.91,SSW,202,3.0,4.0,75,0.00,,,0.00,Wunderground v.1.15,2013-03-21 18:25:00,
2013-03-21 11:30:00,64.2,56.1,29.91,SSE,163,3.0,3.0,75,0.00,,,0.00,Wunderground v.1.15,2013-03-21 18:30:00,
2013-03-21 11:35:00,64.4,56.7,29.91,South,184,3.0,4.0,76,0.00,,,0.00,Wunderground v.1.15,2013-03-21 18:35:00,
2013-03-21 11:40:00,64.2,56.1,29.91,SSW,203,3.0,3.0,75,0.00,,,0.00,Wunderground v.1.15,2013-03-21 18:40:00,
2013-03-21 11:45:00,64.2,56.1,29.91,South,175,4.0,4.0,75,0.00,,,0.00,Wunderground v.1.15,2013-03-21 18:45:00,
2013-03-21 11:50:00,64.3,56.2,29.91,South,176,3.0,3.0,75,0.00,,,0.00,Wunderground v.1.15,2013-03-21 18:50:00,
2013-03-21 12:00:00,64.5,56.4,29.91,ESE,113,3.0,3.0,75,0.00,,,0.00,Wunderground v.1.15,2013-03-21 19:00:00,
2013-03-21 12:10:00,64.8,56.3,29.91,South,188,3.0,3.0,74,0.00,,,0.00,Wunderground v.1.15,2013-03-21 19:10:00,
2013-03-21 12:20:00,65.2,56.3,29.90,South,188,3.0,5.0,73,0.00,,,0.00,Wunderground v.1.15,2013-03-21 19:20:00,
2013-03-21 15:00:00,67.1,57.0,29.84,SW,232,3.0,3.0,70,0.00,,,0.00,Wunderground v.1.15,2013-03-21 22:00:00,
2013-03-21 15:05:00,67.3,56.4,29.84,SW,232,4.0,7.0,68,0.00,,,0.00,Wunderground v.1.15,2013-03-21 22:05:00,
2013-03-21 15:10:00,67.1,57.0,29.84,South,186,5.0,5.0,70,0.00,,,0.00,Wunderground v.1.15,2013-03-21 22:10:00,
2013-03-21 15:20:00,67.3,57.2,29.83,SSW,200,4.0,4.0,70,0.00,,,0.00,Wunderground v.1.15,2013-03-21 22:20:00,
2013-03-21 15:25:00,67.2,57.5,29.83,South,185,4.0,4.0,71,0.00,,,0.00,Wunderground v.1.15,2013-03-21 22:25:00,
2013-03-21 15:30:00,67.7,57.6,29.83,SSW,209,3.0,3.0,70,0.00,,,0.00,Wunderground v.1.15,2013-03-21 22:30:00,
2013-03-21 15:35:00,67.9,57.4,29.83,South,188,3.0,5.0,69,0.00,,,0.00,Wunderground v.1.15,2013-03-21 22:35:00,
2013-03-21 15:40:00,67.5,56.2,29.83,SSW,198,4.0,4.0,67,0.00,,,0.00,Wunderground v.1.15,2013-03-21 22:40:00,
2013-03-21 15:45:00,66.9,56.4,29.83,South,187,5.0,8.0,69,0.00,,,0.00,Wunderground v.1.15,2013-03-21 22:45:00,
2013-03-21 15:50:00,66.8,55.9,29.82,SW,225,5.0,5.0,68,0.00,,,0.00,Wunderground v.1.15,2013-03-21 22:50:00,
2013-03-21 15:55:00,66.9,56.8,29.83,SW,227,4.0,5.0,70,0.00,,,0.00,Wunderground v.1.15,2013-03-21 22:55:00,
2013-03-21 16:00:00,66.9,56.8,29.83,SSW,212,4.0,4.0,70,0.00,,,0.00,Wunderground v.1.15,2013-03-21 23:00:00,
2013-03-21 16:05:00,66.5,56.0,29.83,South,183,5.0,5.0,69,0.00,,,0.00,Wunderground v.1.15,2013-03-21 23:05:00,
2013-03-21 16:10:00,66.4,55.5,29.83,SE,136,5.0,5.0,68,0.00,,,0.00,Wunderground v.1.15,2013-03-21 23:10:00,
2013-03-21 16:15:00,66.4,55.1,29.83,SW,232,4.0,7.0,67,0.00,,,0.00,Wunderground v.1.15,2013-03-21 23:15:00,
2013-03-21 16:20:00,66.6,55.7,29.82,South,169,4.0,4.0,68,0.00,,,0.00,Wunderground v.1.15,2013-03-21 23:20:00,
2013-03-21 16:30:00,66.7,55.4,29.82,SW,214,5.0,5.0,67,0.00,,,0.00,Wunderground v.1.15,2013-03-21 23:30:00,
2013-03-21 16:35:00,66.4,55.5,29.82,SSW,213,5.0,7.0,68,0.00,,,0.00,Wunderground v.1.15,2013-03-21 23:35:00,
2013-03-21 16:40:00,66.1,55.2,29.82,SSW,194,5.0,6.0,68,0.00,,,0.00,Wunderground v.1.15,2013-03-21 23:40:00,
2013-03-21 16:50:00,66.1,55.2,29.82,SSW,209,5.0,5.0,68,0.00,,,0.00,Wunderground v.1.15,2013-03-21 23:50:00,
2013-03-21 16:55:00,65.9,55.4,29.82,SSW,197,5.0,5.0,69,0.00,,,0.00,Wunderground v.1.15,2013-03-21 23:55:00,
2013-03-21 17:01:00,65.6,55.9,29.81,SSW,196,5.0,5.0,71,0.00,,,0.00,Wunderground v.1.15,2013-03-22 00:01:00,
2013-03-21 17:05:00,65.5,56.2,29.81,SSW,198,4.0,5.0,72,0.00,,,0.00,Wunderground v.1.15,2013-03-22 00:05:00,
2013-03-21 17:10:00,65.8,56.1,29.81,SSW,199,4.0,5.0,71,0.00,,,0.00,Wunderground v.1.15,2013-03-22 00:10:00,
2013-03-21 17:20:00,66.6,55.7,29.81,South,188,3.0,3.0,68,0.00,,,0.00,Wunderground v.1.15,2013-03-22 00:20:00,
2013-03-21 17:25:00,66.8,56.3,29.80,SSW,209,4.0,4.0,69,0.00,,,0.00,Wunderground v.1.15,2013-03-22 00:25:00,
2013-03-21 17:30:00,66.4,56.7,29.81,SW,232,3.0,3.0,71,0.00,,,0.00,Wunderground v.1.15,2013-03-22 00:30:00,
2013-03-21 17:35:00,65.8,56.9,29.81,SSW,212,3.0,4.0,73,0.00,,,0.00,Wunderground v.1.15,2013-03-22 00:35:00,
2013-03-21 17:40:00,65.5,57.0,29.81,South,175,3.0,9.0,74,0.00,,,0.00,Wunderground v.1.15,2013-03-22 00:40:00,
2013-03-21 17:45:00,64.9,56.8,29.80,South,171,3.0,9.0,75,0.00,,,0.00,Wunderground v.1.15,2013-03-22 00:45:00,
2013-03-21 17:50:00,64.7,56.6,29.80,West,271,3.0,3.0,75,0.00,,,0.00,Wunderground v.1.15,2013-03-22 00:50:00,
2013-03-21 17:55:00,64.5,56.8,29.81,SSW,200,3.0,3.0,76,0.00,,,0.00,Wunderground v.1.15,2013-03-22 00:55:00,
2013-03-21 18:00:00,64.7,57.0,29.81,SW,219,2.0,2.0,76,0.00,,,0.00,Wunderground v.1.15,2013-03-22 01:00:00,
2013-03-21 18:10:00,65.1,56.6,29.81,SSW,209,1.0,1.0,74,0.00,,,0.00,Wunderground v.1.15,2013-03-22 01:10:00,
2013-03-21 18:20:00,65.1,56.6,29.81,SSW,208,1.0,3.0,74,0.00,,,0.00,Wunderground v.1.15,2013-03-22 01:20:00,
2013-03-21 18:25:00,64.8,56.7,29.80,SSW,205,3.0,5.0,75,0.00,,,0.00,Wunderground v.1.15,2013-03-22 01:25:00,
2013-03-21 18:30:00,64.5,56.4,29.80,SW,217,3.0,5.0,75,0.00,,,0.00,Wunderground v.1.15,2013-03-22 01:30:00,
2013-03-21 18:35:00,63.6,55.9,29.80,SW,235,4.0,5.0,76,0.00,,,0.00,Wunderground v.1.15,2013-03-22 01:35:00,
2013-03-21 18:45:00,62.6,55.6,29.80,SW,236,3.0,7.0,78,0.00,,,0.00,Wunderground v.1.15,2013-03-22 01:45:00,
2013-03-21 18:50:00,62.2,55.6,29.80,SW,232,3.0,3.0,79,0.00,,,0.00,Wunderground v.1.15,2013-03-22 01:50:00,
2013-03-21 18:55:00,61.8,55.2,29.80,WSW,240,3.0,3.0,79,0.00,,,0.00,Wunderground v.1.15,2013-03-22 01:55:00,
2013-03-21 19:00:00,61.6,55.4,29.80,WSW,240,2.0,2.0,80,0.00,,,0.00,Wunderground v.1.15,2013-03-22 02:00:00,
2013-03-21 19:05:00,61.4,55.2,29.80,SW,224,2.0,2.0,80,0.00,,,0.00,Wunderground v.1.15,2013-03-22 02:05:00,
2013-03-21 19:10:00,61.2,55.0,29.81,SW,224,2.0,2.0,80,0.00,,,0.00,Wunderground v.1.15,2013-03-22 02:10:00,
2013-03-21 19:20:00,61.0,54.4,29.81,SW,224,1.0,3.0,79,0.00,,,0.00,Wunderground v.1.15,2013-03-22 02:20:00,
2013-03-21 19:25:00,60.8,54.2,29.81,SW,217,2.0,2.0,79,0.00,,,0.00,Wunderground v.1.15,2013-03-22 02:25:00,
2013-03-21 19:35:00,60.6,54.0,29.81,SSW,212,2.0,2.0,79,0.00,,,0.00,Wunderground v.1.15,2013-03-22 02:35:00,
2013-03-21 19:40:00,60.5,54.3,29.81,SSW,212,2.0,2.0,80,0.00,,,0.00,Wunderground v.1.15,2013-03-22 02:40:00,
2013-03-21 19:45:00,60.4,54.2,29.81,SSW,212,1.0,1.0,80,0.00,,,0.00,Wunderground v.1.15,2013-03-22 02:45:00,
2013-03-21 19:51:00,60.2,54.0,29.80,SSW,212,0.0,1.0,80,0.00,,,0.00,Wunderground v.1.15,2013-03-22 02:51:00,
2013-03-21 19:55:00,60.1,53.9,29.80,SSW,212,1.0,1.0,80,0.00,,,0.00,Wunderground v.1.15,2013-03-22 02:55:00,
2013-03-21 20:00:00,60.0,53.8,29.80,SSW,212,0.0,0.0,80,0.00,,,0.00,Wunderground v.1.15,2013-03-22 03:00:00,
2013-03-21 20:05:00,59.9,54.1,29.81,SSW,212,0.0,0.0,81,0.00,,,0.00,Wunderground v.1.15,2013-03-22 03:05:00,
2013-03-21 20:10:00,59.8,54.0,29.80,SSW,212,0.0,0.0,81,0.00,,,0.00,Wunderground v.1.15,2013-03-22 03:10:00,
2013-03-21 20:20:00,59.6,54.1,29.81,SSW,212,0.0,0.0,82,0.00,,,0.00,Wunderground v.1.15,2013-03-22 03:20:00,
2013-03-21 20:25:00,59.5,54.0,29.81,SSW,212,0.0,0.0,82,0.00,,,0.00,Wunderground v.1.15,2013-03-22 03:25:00,
2013-03-21 20:30:00,59.3,53.8,29.82,SSW,212,0.0,0.0,82,0.00,,,0.00,Wunderground v.1.15,2013-03-22 03:30:00,
2013-03-21 20:35:00,59.2,54.0,29.82,SSW,212,0.0,0.0,83,0.00,,,0.00,Wunderground v.1.15,2013-03-22 03:35:00,
2013-03-21 20:40:00,59.1,53.9,29.82,SSW,212,0.0,0.0,83,0.00,,,0.00,Wunderground v.1.15,2013-03-22 03:40:00,
2013-03-21 20:45:00,59.0,54.2,29.82,SSW,212,0.0,0.0,84,0.00,,,0.00,Wunderground v.1.15,2013-03-22 03:45:00,
2013-03-21 20:50:00,59.0,54.2,29.82,SSW,212,0.0,0.0,84,0.00,,,0.00,Wunderground v.1.15,2013-03-22 03:50:00,
2013-03-21 21:00:00,58.6,53.8,29.82,SSW,212,0.0,0.0,84,0.00,,,0.00,Wunderground v.1.15,2013-03-22 04:00:00,
2013-03-21 21:05:00,58.4,53.6,29.82,SSW,212,0.0,0.0,84,0.00,,,0.00,Wunderground v.1.15,2013-03-22 04:05:00,
2013-03-21 21:10:00,58.2,53.4,29.82,SSW,212,0.0,0.0,84,0.00,,,0.00,Wunderground v.1.15,2013-03-22 04:10:00,
2013-03-21 21:20:00,57.8,53.3,29.82,SSW,212,0.0,0.0,85,0.00,,,0.00,Wunderground v.1.15,2013-03-22 04:20:00,
2013-03-21 21:25:00,57.6,53.1,29.82,SSW,212,0.0,0.0,85,0.00,,,0.00,Wunderground v.1.15,2013-03-22 04:25:00,
2013-03-21 21:30:00,57.4,53.2,29.82,SSW,212,0.0,0.0,86,0.00,,,0.00,Wunderground v.1.15,2013-03-22 04:30:00,
2013-03-21 22:00:00,56.5,52.7,29.82,N/A,-737280,0.0,-999.0,87,0.00,,,0.00,Wunderground v.1.15,2013-03-22 05:00:00,
2013-03-21 22:05:00,56.2,52.4,29.83,N/A,-737280,0.0,-999.0,87,0.00,,,0.00,Wunderground v.1.15,2013-03-22 05:05:00,
2013-03-21 22:10:00,56.2,52.4,29.83,N/A,-737280,0.0,-999.0,87,0.00,,,0.00,Wunderground v.1.15,2013-03-22 05:10:00,
2013-03-21 22:15:00,56.1,52.3,29.82,N/A,-737280,0.0,-999.0,87,0.00,,,0.00,Wunderground v.1.15,2013-03-22 05:15:00,
2013-03-21 22:20:00,56.1,52.3,29.82,N/A,-737280,0.0,-999.0,87,0.00,,,0.00,Wunderground v.1.15,2013-03-22 05:20:00,
2013-03-21 22:25:00,56.2,52.4,29.82,N/A,-737280,0.0,-999.0,87,0.00,,,0.00,Wunderground v.1.15,2013-03-22 05:25:00,
2013-03-21 22:30:00,56.2,52.4,29.82,N/A,-737280,0.0,-999.0,87,0.00,,,0.00,Wunderground v.1.15,2013-03-22 05:30:00,
2013-03-21 22:35:00,56.1,52.3,29.83,N/A,-737280,0.0,-999.0,87,0.00,,,0.00,Wunderground v.1.15,2013-03-22 05:35:00,
2013-03-21 22:40:00,56.1,52.3,29.83,N/A,-737280,0.0,-999.0,87,0.00,,,0.00,Wunderground v.1.15,2013-03-22 05:40:00,
2013-03-21 22:45:00,55.8,52.0,29.83,N/A,-737280,0.0,-999.0,87,0.00,,,0.00,Wunderground v.1.15,2013-03-22 05:45:00,
2013-03-21 22:50:00,55.8,52.0,29.83,N/A,-737280,0.0,-999.0,87,0.00,,,0.00,Wunderground v.1.15,2013-03-22 05:50:00,
2013-03-21 22:55:00,55.4,51.6,29.83,N/A,-737280,0.0,-999.0,87,0.00,,,0.00,Wunderground v.1.15,2013-03-22 05:55:00,
2013-03-21 23:00:00,55.4,51.6,29.83,N/A,-737280,0.0,-999.0,87,0.00,,,0.00,Wunderground v.1.15,2013-03-22 06:00:00,
2013-03-21 23:05:00,55.3,51.8,29.83,N/A,-737280,0.0,-999.0,88,0.00,,,0.00,Wunderground v.1.15,2013-03-22 06:05:00,
2013-03-21 23:10:00,55.3,51.8,29.83,N/A,-737280,0.0,-999.0,88,0.00,,,0.00,Wunderground v.1.15,2013-03-22 06:10:00,
2013-03-21 23:15:00,55.2,51.7,29.83,N/A,-737280,0.0,-999.0,88,0.00,,,0.00,Wunderground v.1.15,2013-03-22 06:15:00,
2013-03-21 23:20:00,55.2,51.7,29.83,N/A,-737280,0.0,-999.0,88,0.00,,,0.00,Wunderground v.1.15,2013-03-22 06:20:00,
2013-03-21 23:25:00,55.1,51.6,29.83,SSW,203,0.0,-999.0,88,0.00,,,0.00,Wunderground v.1.15,2013-03-22 06:25:00,
2013-03-21 23:30:00,55.1,51.6,29.83,SSW,203,0.0,-999.0,88,0.00,,,0.00,Wunderground v.1.15,2013-03-22 06:30:00,
2013-03-21 23:35:00,55.6,52.1,29.82,SSW,203,0.0,-999.0,88,0.00,,,0.00,Wunderground v.1.15,2013-03-22 06:35:00,
2013-03-21 23:40:00,55.6,52.1,29.82,SSW,203,0.0,-999.0,88,0.00,,,0.00,Wunderground v.1.15,2013-03-22 06:40:00,
2013-03-21 23:45:00,56.1,52.9,29.82,SSW,203,1.0,-999.0,89,0.00,,,0.00,Wunderground v.1.15,2013-03-22 06:45:00,
2013-03-21 23:50:00,56.1,52.9,29.82,SSW,203,1.0,-999.0,89,0.00,,,0.00,Wunderground v.1.15,2013-03-22 06:50:00,
2013-03-21 23:55:00,56.3,52.8,29.81,South,180,0.0,-999.0,88,0.00,,,0.00,Wunderground v.1.15,2013-03-22 06:55:00,